sensor_id;sensor_type;location;lat;lon;timestamp;temperature;humidity
64997;SHT31;51545;51.568;6.998;2023-04-29T00:01:18;11.38;98.85
64997;SHT31;51545;51.568;6.998;2023-04-29T00:03:44;11.46;98.90
64997;SHT31;51545;51.568;6.998;2023-04-29T00:06:10;11.32;98.99
64997;SHT31;51545;51.568;6.998;2023-04-29T00:08:35;11.36;98.89
64997;SHT31;51545;51.568;6.998;2023-04-29T00:11:01;11.29;99.03
64997;SHT31;51545;51.568;6.998;2023-04-29T00:13:27;11.32;98.77
64997;SHT31;51545;51.568;6.998;2023-04-29T00:15:52;11.29;98.69
64997;SHT31;51545;51.568;6.998;2023-04-29T00:18:18;11.31;98.78
64997;SHT31;51545;51.568;6.998;2023-04-29T00:20:43;11.26;98.93
64997;SHT31;51545;51.568;6.998;2023-04-29T00:23:08;11.12;98.86
64997;SHT31;51545;51.568;6.998;2023-04-29T00:25:34;11.15;98.91
64997;SHT31;51545;51.568;6.998;2023-04-29T00:28:00;11.14;99.06
64997;SHT31;51545;51.568;6.998;2023-04-29T00:30:26;11.21;99.07
64997;SHT31;51545;51.568;6.998;2023-04-29T00:32:53;11.21;98.99
64997;SHT31;51545;51.568;6.998;2023-04-29T00:35:19;11.21;98.90
64997;SHT31;51545;51.568;6.998;2023-04-29T00:37:45;11.16;98.75
64997;SHT31;51545;51.568;6.998;2023-04-29T00:40:10;11.12;98.74
64997;SHT31;51545;51.568;6.998;2023-04-29T00:42:39;11.08;98.88
64997;SHT31;51545;51.568;6.998;2023-04-29T00:45:05;11.03;98.92
64997;SHT31;51545;51.568;6.998;2023-04-29T00:47:32;10.84;99.21
64997;SHT31;51545;51.568;6.998;2023-04-29T00:49:57;10.93;99.11
64997;SHT31;51545;51.568;6.998;2023-04-29T00:52:22;10.94;99.06
64997;SHT31;51545;51.568;6.998;2023-04-29T00:54:49;10.91;99.13
64997;SHT31;51545;51.568;6.998;2023-04-29T00:57:15;10.88;99.06
64997;SHT31;51545;51.568;6.998;2023-04-29T00:59:43;10.95;99.28
64997;SHT31;51545;51.568;6.998;2023-04-29T01:02:09;10.88;99.11
64997;SHT31;51545;51.568;6.998;2023-04-29T01:04:36;10.79;99.03
64997;SHT31;51545;51.568;6.998;2023-04-29T01:07:14;10.76;99.12
64997;SHT31;51545;51.568;6.998;2023-04-29T01:10:05;10.77;99.30
64997;SHT31;51545;51.568;6.998;2023-04-29T01:15:21;10.76;99.42
64997;SHT31;51545;51.568;6.998;2023-04-29T01:17:54;10.80;99.52
64997;SHT31;51545;51.568;6.998;2023-04-29T01:20:33;10.75;99.60
64997;SHT31;51545;51.568;6.998;2023-04-29T01:22:59;10.86;99.60
64997;SHT31;51545;51.568;6.998;2023-04-29T01:25:25;10.86;99.54
64997;SHT31;51545;51.568;6.998;2023-04-29T01:27:56;10.66;99.28
64997;SHT31;51545;51.568;6.998;2023-04-29T01:33:13;10.66;99.42
64997;SHT31;51545;51.568;6.998;2023-04-29T01:38:36;10.45;99.63
64997;SHT31;51545;51.568;6.998;2023-04-29T01:44:18;10.38;99.66
64997;SHT31;51545;51.568;6.998;2023-04-29T01:46:49;10.35;99.49
64997;SHT31;51545;51.568;6.998;2023-04-29T01:49:20;10.36;99.46
64997;SHT31;51545;51.568;6.998;2023-04-29T01:51:46;10.33;99.20
64997;SHT31;51545;51.568;6.998;2023-04-29T01:54:11;10.29;99.47
64997;SHT31;51545;51.568;6.998;2023-04-29T01:56:37;10.36;99.31
64997;SHT31;51545;51.568;6.998;2023-04-29T01:59:02;10.32;99.31
64997;SHT31;51545;51.568;6.998;2023-04-29T02:01:29;10.26;99.33
64997;SHT31;51545;51.568;6.998;2023-04-29T02:03:54;10.32;99.32
64997;SHT31;51545;51.568;6.998;2023-04-29T02:06:19;10.36;99.31
64997;SHT31;51545;51.568;6.998;2023-04-29T02:08:45;10.36;99.06
64997;SHT31;51545;51.568;6.998;2023-04-29T02:11:10;10.22;99.12
64997;SHT31;51545;51.568;6.998;2023-04-29T02:13:36;10.26;99.11
64997;SHT31;51545;51.568;6.998;2023-04-29T02:16:08;10.24;98.92
64997;SHT31;51545;51.568;6.998;2023-04-29T02:18:37;10.18;98.92
64997;SHT31;51545;51.568;6.998;2023-04-29T02:21:04;10.15;98.83
64997;SHT31;51545;51.568;6.998;2023-04-29T02:23:29;10.05;99.05
64997;SHT31;51545;51.568;6.998;2023-04-29T02:25:55;10.07;99.07
64997;SHT31;51545;51.568;6.998;2023-04-29T02:28:21;10.05;99.06
64997;SHT31;51545;51.568;6.998;2023-04-29T02:30:47;10.03;99.09
64997;SHT31;51545;51.568;6.998;2023-04-29T02:33:13;10.05;99.16
64997;SHT31;51545;51.568;6.998;2023-04-29T02:35:39;10.11;99.07
64997;SHT31;51545;51.568;6.998;2023-04-29T02:38:04;10.17;99.14
64997;SHT31;51545;51.568;6.998;2023-04-29T02:40:31;10.07;99.14
64997;SHT31;51545;51.568;6.998;2023-04-29T02:42:57;10.08;99.26
64997;SHT31;51545;51.568;6.998;2023-04-29T02:45:22;10.05;99.34
64997;SHT31;51545;51.568;6.998;2023-04-29T02:47:47;10.08;99.47
64997;SHT31;51545;51.568;6.998;2023-04-29T02:50:13;10.01;99.50
64997;SHT31;51545;51.568;6.998;2023-04-29T02:52:38;9.95;99.79
64997;SHT31;51545;51.568;6.998;2023-04-29T02:55:06;9.89;99.85
64997;SHT31;51545;51.568;6.998;2023-04-29T02:57:32;9.90;99.53
64997;SHT31;51545;51.568;6.998;2023-04-29T02:59:57;9.94;99.76
64997;SHT31;51545;51.568;6.998;2023-04-29T03:02:23;9.94;99.77
64997;SHT31;51545;51.568;6.998;2023-04-29T03:04:49;9.89;99.81
64997;SHT31;51545;51.568;6.998;2023-04-29T03:07:14;9.84;99.67
64997;SHT31;51545;51.568;6.998;2023-04-29T03:09:41;9.84;99.87
64997;SHT31;51545;51.568;6.998;2023-04-29T03:12:07;9.86;99.86
64997;SHT31;51545;51.568;6.998;2023-04-29T03:14:32;9.91;99.81
64997;SHT31;51545;51.568;6.998;2023-04-29T03:16:58;9.97;99.76
64997;SHT31;51545;51.568;6.998;2023-04-29T03:19:23;9.91;99.68
64997;SHT31;51545;51.568;6.998;2023-04-29T03:21:49;9.83;99.99
64997;SHT31;51545;51.568;6.998;2023-04-29T03:24:14;9.84;99.99
64997;SHT31;51545;51.568;6.998;2023-04-29T03:26:40;9.90;99.99
64997;SHT31;51545;51.568;6.998;2023-04-29T03:29:07;9.91;99.93
64997;SHT31;51545;51.568;6.998;2023-04-29T03:31:33;9.83;99.99
64997;SHT31;51545;51.568;6.998;2023-04-29T03:33:58;9.82;99.99
64997;SHT31;51545;51.568;6.998;2023-04-29T03:36:24;9.84;99.99
64997;SHT31;51545;51.568;6.998;2023-04-29T03:38:49;9.83;99.99
64997;SHT31;51545;51.568;6.998;2023-04-29T03:41:15;9.84;99.99
64997;SHT31;51545;51.568;6.998;2023-04-29T03:43:41;9.89;99.99
64997;SHT31;51545;51.568;6.998;2023-04-29T03:46:08;9.90;99.99
64997;SHT31;51545;51.568;6.998;2023-04-29T03:48:34;9.79;99.99
64997;SHT31;51545;51.568;6.998;2023-04-29T03:51:00;9.82;99.99
64997;SHT31;51545;51.568;6.998;2023-04-29T03:53:26;9.87;99.99
64997;SHT31;51545;51.568;6.998;2023-04-29T03:55:51;9.84;99.99
64997;SHT31;51545;51.568;6.998;2023-04-29T03:58:17;9.83;99.99
64997;SHT31;51545;51.568;6.998;2023-04-29T04:00:42;9.89;99.99
64997;SHT31;51545;51.568;6.998;2023-04-29T04:03:08;9.90;99.99
64997;SHT31;51545;51.568;6.998;2023-04-29T04:05:33;9.93;99.99
64997;SHT31;51545;51.568;6.998;2023-04-29T04:07:59;9.87;99.99
64997;SHT31;51545;51.568;6.998;2023-04-29T04:10:24;9.82;99.99
64997;SHT31;51545;51.568;6.998;2023-04-29T04:12:50;9.77;99.99
64997;SHT31;51545;51.568;6.998;2023-04-29T04:15:16;9.79;99.99
64997;SHT31;51545;51.568;6.998;2023-04-29T04:17:42;9.74;99.99
64997;SHT31;51545;51.568;6.998;2023-04-29T04:20:07;9.77;99.99
64997;SHT31;51545;51.568;6.998;2023-04-29T04:22:33;9.77;99.99
64997;SHT31;51545;51.568;6.998;2023-04-29T04:24:58;9.77;99.99
64997;SHT31;51545;51.568;6.998;2023-04-29T04:27:24;9.71;99.99
64997;SHT31;51545;51.568;6.998;2023-04-29T04:29:53;9.79;99.99
64997;SHT31;51545;51.568;6.998;2023-04-29T04:32:19;9.84;99.99
64997;SHT31;51545;51.568;6.998;2023-04-29T04:34:46;9.82;99.99
64997;SHT31;51545;51.568;6.998;2023-04-29T04:37:12;9.80;99.99
64997;SHT31;51545;51.568;6.998;2023-04-29T04:39:38;9.82;99.99
64997;SHT31;51545;51.568;6.998;2023-04-29T04:42:03;9.77;99.99
64997;SHT31;51545;51.568;6.998;2023-04-29T04:44:29;9.82;99.99
64997;SHT31;51545;51.568;6.998;2023-04-29T04:46:55;9.82;99.99
64997;SHT31;51545;51.568;6.998;2023-04-29T04:49:22;9.82;99.99
64997;SHT31;51545;51.568;6.998;2023-04-29T04:51:49;9.74;99.99
64997;SHT31;51545;51.568;6.998;2023-04-29T04:54:15;9.73;99.99
64997;SHT31;51545;51.568;6.998;2023-04-29T04:56:41;9.77;99.99
64997;SHT31;51545;51.568;6.998;2023-04-29T04:59:07;9.82;99.99
64997;SHT31;51545;51.568;6.998;2023-04-29T05:01:32;9.83;99.99
64997;SHT31;51545;51.568;6.998;2023-04-29T05:03:58;9.74;99.99
64997;SHT31;51545;51.568;6.998;2023-04-29T05:06:24;9.79;99.99
64997;SHT31;51545;51.568;6.998;2023-04-29T05:08:50;9.80;99.99
64997;SHT31;51545;51.568;6.998;2023-04-29T05:11:19;9.84;99.99
64997;SHT31;51545;51.568;6.998;2023-04-29T05:13:46;9.87;99.96
64997;SHT31;51545;51.568;6.998;2023-04-29T05:16:12;9.84;99.88
64997;SHT31;51545;51.568;6.998;2023-04-29T05:18:37;9.91;99.77
64997;SHT31;51545;51.568;6.998;2023-04-29T05:21:03;9.80;99.63
64997;SHT31;51545;51.568;6.998;2023-04-29T05:23:28;9.77;99.56
64997;SHT31;51545;51.568;6.998;2023-04-29T05:25:54;9.83;99.48
64997;SHT31;51545;51.568;6.998;2023-04-29T05:28:20;9.82;99.37
64997;SHT31;51545;51.568;6.998;2023-04-29T05:30:45;9.84;99.36
64997;SHT31;51545;51.568;6.998;2023-04-29T05:33:11;9.83;99.39
64997;SHT31;51545;51.568;6.998;2023-04-29T05:35:37;9.82;99.31
64997;SHT31;51545;51.568;6.998;2023-04-29T05:38:02;9.80;99.30
64997;SHT31;51545;51.568;6.998;2023-04-29T05:40:28;9.90;99.25
64997;SHT31;51545;51.568;6.998;2023-04-29T05:42:53;9.93;99.15
64997;SHT31;51545;51.568;6.998;2023-04-29T05:45:19;9.93;98.94
64997;SHT31;51545;51.568;6.998;2023-04-29T05:47:44;9.89;99.11
64997;SHT31;51545;51.568;6.998;2023-04-29T05:50:10;9.89;99.09
64997;SHT31;51545;51.568;6.998;2023-04-29T05:52:36;9.97;99.06
64997;SHT31;51545;51.568;6.998;2023-04-29T05:55:01;9.94;98.91
64997;SHT31;51545;51.568;6.998;2023-04-29T05:57:27;9.90;98.81
64997;SHT31;51545;51.568;6.998;2023-04-29T05:59:52;9.94;98.81
64997;SHT31;51545;51.568;6.998;2023-04-29T06:02:19;9.98;98.80
64997;SHT31;51545;51.568;6.998;2023-04-29T06:04:45;9.97;98.37
64997;SHT31;51545;51.568;6.998;2023-04-29T06:07:11;10.08;98.63
64997;SHT31;51545;51.568;6.998;2023-04-29T06:09:38;10.14;98.50
64997;SHT31;51545;51.568;6.998;2023-04-29T06:12:04;10.20;98.17
64997;SHT31;51545;51.568;6.998;2023-04-29T06:14:30;10.07;98.06
64997;SHT31;51545;51.568;6.998;2023-04-29T06:16:55;10.07;98.12
64997;SHT31;51545;51.568;6.998;2023-04-29T06:19:21;10.11;98.14
64997;SHT31;51545;51.568;6.998;2023-04-29T06:21:47;10.05;98.21
64997;SHT31;51545;51.568;6.998;2023-04-29T06:24:12;10.07;98.27
64997;SHT31;51545;51.568;6.998;2023-04-29T06:26:37;10.07;98.33
64997;SHT31;51545;51.568;6.998;2023-04-29T06:29:03;10.04;98.39
64997;SHT31;51545;51.568;6.998;2023-04-29T06:31:28;10.07;98.54
64997;SHT31;51545;51.568;6.998;2023-04-29T06:33:54;10.10;98.36
64997;SHT31;51545;51.568;6.998;2023-04-29T06:36:19;10.07;98.22
64997;SHT31;51545;51.568;6.998;2023-04-29T06:38:45;10.07;98.16
64997;SHT31;51545;51.568;6.998;2023-04-29T06:41:10;10.04;97.87
64997;SHT31;51545;51.568;6.998;2023-04-29T06:43:36;10.04;97.84
64997;SHT31;51545;51.568;6.998;2023-04-29T06:46:01;9.97;98.05
64997;SHT31;51545;51.568;6.998;2023-04-29T06:48:27;10.04;98.35
64997;SHT31;51545;51.568;6.998;2023-04-29T06:50:53;9.90;98.27
64997;SHT31;51545;51.568;6.998;2023-04-29T06:53:20;9.86;98.64
64997;SHT31;51545;51.568;6.998;2023-04-29T06:55:46;9.80;98.35
64997;SHT31;51545;51.568;6.998;2023-04-29T06:58:12;9.91;98.20
64997;SHT31;51545;51.568;6.998;2023-04-29T07:00:42;9.91;98.44
64997;SHT31;51545;51.568;6.998;2023-04-29T07:03:08;9.94;97.96
64997;SHT31;51545;51.568;6.998;2023-04-29T07:05:35;9.93;97.90
64997;SHT31;51545;51.568;6.998;2023-04-29T07:08:03;10.00;97.86
64997;SHT31;51545;51.568;6.998;2023-04-29T07:10:29;9.95;97.93
64997;SHT31;51545;51.568;6.998;2023-04-29T07:12:55;10.00;97.59
64997;SHT31;51545;51.568;6.998;2023-04-29T07:15:20;10.00;97.43
64997;SHT31;51545;51.568;6.998;2023-04-29T07:17:46;10.00;97.37
64997;SHT31;51545;51.568;6.998;2023-04-29T07:20:12;10.04;97.11
64997;SHT31;51545;51.568;6.998;2023-04-29T07:22:38;10.01;97.09
64997;SHT31;51545;51.568;6.998;2023-04-29T07:25:04;10.05;97.34
64997;SHT31;51545;51.568;6.998;2023-04-29T07:27:31;10.15;97.59
64997;SHT31;51545;51.568;6.998;2023-04-29T07:29:58;10.14;97.34
64997;SHT31;51545;51.568;6.998;2023-04-29T07:32:25;10.18;97.14
64997;SHT31;51545;51.568;6.998;2023-04-29T07:34:51;10.18;96.65
64997;SHT31;51545;51.568;6.998;2023-04-29T07:37:17;10.12;96.32
64997;SHT31;51545;51.568;6.998;2023-04-29T07:39:43;10.15;96.39
64997;SHT31;51545;51.568;6.998;2023-04-29T07:42:08;10.20;96.36
64997;SHT31;51545;51.568;6.998;2023-04-29T07:44:34;10.15;96.52
64997;SHT31;51545;51.568;6.998;2023-04-29T07:47:00;10.18;96.43
64997;SHT31;51545;51.568;6.998;2023-04-29T07:49:25;10.21;96.49
64997;SHT31;51545;51.568;6.998;2023-04-29T07:51:51;10.21;96.17
64997;SHT31;51545;51.568;6.998;2023-04-29T07:54:16;10.20;96.06
64997;SHT31;51545;51.568;6.998;2023-04-29T07:56:43;10.21;96.34
64997;SHT31;51545;51.568;6.998;2023-04-29T07:59:09;10.20;96.59
64997;SHT31;51545;51.568;6.998;2023-04-29T08:01:35;10.24;96.35
64997;SHT31;51545;51.568;6.998;2023-04-29T08:04:00;10.28;95.79
64997;SHT31;51545;51.568;6.998;2023-04-29T08:06:26;10.28;95.90
64997;SHT31;51545;51.568;6.998;2023-04-29T08:08:52;10.35;95.68
64997;SHT31;51545;51.568;6.998;2023-04-29T08:11:20;10.43;95.79
64997;SHT31;51545;51.568;6.998;2023-04-29T08:13:46;10.45;95.86
64997;SHT31;51545;51.568;6.998;2023-04-29T08:16:11;10.40;95.34
64997;SHT31;51545;51.568;6.998;2023-04-29T08:18:37;10.39;95.05
64997;SHT31;51545;51.568;6.998;2023-04-29T08:21:04;10.40;95.09
64997;SHT31;51545;51.568;6.998;2023-04-29T08:23:29;10.39;95.32
64997;SHT31;51545;51.568;6.998;2023-04-29T08:25:55;10.45;95.08
64997;SHT31;51545;51.568;6.998;2023-04-29T08:28:20;10.48;94.91
64997;SHT31;51545;51.568;6.998;2023-04-29T08:30:46;10.53;94.77
64997;SHT31;51545;51.568;6.998;2023-04-29T08:33:12;10.53;94.53
64997;SHT31;51545;51.568;6.998;2023-04-29T08:35:38;10.66;94.42
64997;SHT31;51545;51.568;6.998;2023-04-29T08:38:04;10.66;94.15
64997;SHT31;51545;51.568;6.998;2023-04-29T08:40:32;10.79;94.38
64997;SHT31;51545;51.568;6.998;2023-04-29T08:43:06;10.76;93.99
64997;SHT31;51545;51.568;6.998;2023-04-29T08:45:34;10.84;93.91
64997;SHT31;51545;51.568;6.998;2023-04-29T08:48:01;10.94;93.53
64997;SHT31;51545;51.568;6.998;2023-04-29T08:50:27;11.03;92.98
64997;SHT31;51545;51.568;6.998;2023-04-29T08:52:55;11.03;92.58
64997;SHT31;51545;51.568;6.998;2023-04-29T08:55:21;11.21;92.60
64997;SHT31;51545;51.568;6.998;2023-04-29T08:57:48;11.28;92.38
64997;SHT31;51545;51.568;6.998;2023-04-29T09:00:14;11.35;92.33
64997;SHT31;51545;51.568;6.998;2023-04-29T09:02:45;11.29;91.71
64997;SHT31;51545;51.568;6.998;2023-04-29T09:05:14;11.22;91.46
64997;SHT31;51545;51.568;6.998;2023-04-29T09:07:40;11.22;91.37
64997;SHT31;51545;51.568;6.998;2023-04-29T09:10:06;11.31;91.68
64997;SHT31;51545;51.568;6.998;2023-04-29T09:12:33;11.42;91.77
64997;SHT31;51545;51.568;6.998;2023-04-29T09:15:00;11.53;91.91
64997;SHT31;51545;51.568;6.998;2023-04-29T09:22:47;11.86;89.95
64997;SHT31;51545;51.568;6.998;2023-04-29T09:25:14;11.98;88.83
64997;SHT31;51545;51.568;6.998;2023-04-29T09:27:40;12.02;88.85
64997;SHT31;51545;51.568;6.998;2023-04-29T09:30:06;12.17;89.14
64997;SHT31;51545;51.568;6.998;2023-04-29T09:32:32;12.20;88.57
64997;SHT31;51545;51.568;6.998;2023-04-29T09:34:57;12.12;88.17
64997;SHT31;51545;51.568;6.998;2023-04-29T09:37:23;12.26;88.43
64997;SHT31;51545;51.568;6.998;2023-04-29T09:39:51;12.35;87.71
64997;SHT31;51545;51.568;6.998;2023-04-29T09:42:17;12.31;87.33
64997;SHT31;51545;51.568;6.998;2023-04-29T09:44:43;12.32;87.22
64997;SHT31;51545;51.568;6.998;2023-04-29T09:47:09;12.14;87.99
64997;SHT31;51545;51.568;6.998;2023-04-29T09:49:36;12.24;88.80
64997;SHT31;51545;51.568;6.998;2023-04-29T09:52:05;12.46;87.72
64997;SHT31;51545;51.568;6.998;2023-04-29T09:54:33;12.56;87.78
64997;SHT31;51545;51.568;6.998;2023-04-29T09:57:04;12.70;86.83
64997;SHT31;51545;51.568;6.998;2023-04-29T09:59:30;12.84;86.11
64997;SHT31;51545;51.568;6.998;2023-04-29T10:02:00;13.07;84.98
64997;SHT31;51545;51.568;6.998;2023-04-29T10:04:28;13.21;84.48
64997;SHT31;51545;51.568;6.998;2023-04-29T10:06:56;13.11;84.44
64997;SHT31;51545;51.568;6.998;2023-04-29T10:09:24;13.25;83.45
64997;SHT31;51545;51.568;6.998;2023-04-29T10:11:51;13.38;84.72
64997;SHT31;51545;51.568;6.998;2023-04-29T10:14:18;13.50;84.15
64997;SHT31;51545;51.568;6.998;2023-04-29T10:16:49;13.52;83.62
64997;SHT31;51545;51.568;6.998;2023-04-29T10:19:37;13.67;83.41
64997;SHT31;51545;51.568;6.998;2023-04-29T10:22:06;13.78;82.83
64997;SHT31;51545;51.568;6.998;2023-04-29T10:24:37;13.87;81.60
64997;SHT31;51545;51.568;6.998;2023-04-29T10:27:07;13.94;81.70
64997;SHT31;51545;51.568;6.998;2023-04-29T10:29:36;14.14;82.92
64997;SHT31;51545;51.568;6.998;2023-04-29T10:32:06;14.21;80.74
64997;SHT31;51545;51.568;6.998;2023-04-29T10:34:33;14.01;83.12
64997;SHT31;51545;51.568;6.998;2023-04-29T10:37:01;14.15;81.58
64997;SHT31;51545;51.568;6.998;2023-04-29T10:43:04;14.49;81.05
64997;SHT31;51545;51.568;6.998;2023-04-29T10:50:33;14.83;78.62
64997;SHT31;51545;51.568;6.998;2023-04-29T10:53:10;14.85;79.33
64997;SHT31;51545;51.568;6.998;2023-04-29T10:55:37;14.98;78.23
64997;SHT31;51545;51.568;6.998;2023-04-29T10:58:03;14.56;79.86
64997;SHT31;51545;51.568;6.998;2023-04-29T11:00:32;14.71;78.87
64997;SHT31;51545;51.568;6.998;2023-04-29T11:02:59;14.71;78.55
64997;SHT31;51545;51.568;6.998;2023-04-29T11:05:30;14.98;79.33
64997;SHT31;51545;51.568;6.998;2023-04-29T11:08:13;15.11;77.54
64997;SHT31;51545;51.568;6.998;2023-04-29T11:10:47;15.05;76.84
64997;SHT31;51545;51.568;6.998;2023-04-29T11:15:50;14.48;79.17
64997;SHT31;51545;51.568;6.998;2023-04-29T11:18:18;14.80;77.98
64997;SHT31;51545;51.568;6.998;2023-04-29T11:23:28;15.46;76.45
64997;SHT31;51545;51.568;6.998;2023-04-29T11:25:54;15.28;76.13
64997;SHT31;51545;51.568;6.998;2023-04-29T11:28:20;14.87;76.69
64997;SHT31;51545;51.568;6.998;2023-04-29T11:30:48;15.56;77.23
64997;SHT31;51545;51.568;6.998;2023-04-29T11:33:15;15.92;74.00
64997;SHT31;51545;51.568;6.998;2023-04-29T11:35:41;16.05;73.02
64997;SHT31;51545;51.568;6.998;2023-04-29T11:38:08;16.05;72.41
64997;SHT31;51545;51.568;6.998;2023-04-29T11:40:33;16.29;72.41
64997;SHT31;51545;51.568;6.998;2023-04-29T11:42:59;15.87;73.60
64997;SHT31;51545;51.568;6.998;2023-04-29T11:45:25;15.98;72.65
64997;SHT31;51545;51.568;6.998;2023-04-29T11:47:50;15.78;72.94
64997;SHT31;51545;51.568;6.998;2023-04-29T11:50:16;15.63;72.86
64997;SHT31;51545;51.568;6.998;2023-04-29T11:52:44;15.60;74.46
64997;SHT31;51545;51.568;6.998;2023-04-29T11:55:11;15.60;72.35
64997;SHT31;51545;51.568;6.998;2023-04-29T11:57:38;15.60;72.76
64997;SHT31;51545;51.568;6.998;2023-04-29T12:00:04;15.95;73.51
64997;SHT31;51545;51.568;6.998;2023-04-29T12:02:34;16.09;72.47
64997;SHT31;51545;51.568;6.998;2023-04-29T12:04:59;16.59;72.28
64997;SHT31;51545;51.568;6.998;2023-04-29T12:07:29;16.77;72.53
64997;SHT31;51545;51.568;6.998;2023-04-29T12:09:55;16.88;71.54
64997;SHT31;51545;51.568;6.998;2023-04-29T12:12:24;16.88;68.29
64997;SHT31;51545;51.568;6.998;2023-04-29T12:14:51;16.37;72.02
64997;SHT31;51545;51.568;6.998;2023-04-29T12:17:17;15.71;72.12
64997;SHT31;51545;51.568;6.998;2023-04-29T12:19:44;15.59;71.58
64997;SHT31;51545;51.568;6.998;2023-04-29T12:22:10;15.67;72.32
64997;SHT31;51545;51.568;6.998;2023-04-29T12:24:36;15.38;73.42
64997;SHT31;51545;51.568;6.998;2023-04-29T12:27:03;15.14;73.67
64997;SHT31;51545;51.568;6.998;2023-04-29T12:29:31;15.04;74.20
64997;SHT31;51545;51.568;6.998;2023-04-29T12:31:57;14.94;74.48
64997;SHT31;51545;51.568;6.998;2023-04-29T12:34:29;14.99;74.16
64997;SHT31;51545;51.568;6.998;2023-04-29T12:36:57;15.04;72.85
64997;SHT31;51545;51.568;6.998;2023-04-29T12:39:24;15.12;73.56
64997;SHT31;51545;51.568;6.998;2023-04-29T12:41:53;15.15;72.33
64997;SHT31;51545;51.568;6.998;2023-04-29T12:44:20;15.04;72.78
64997;SHT31;51545;51.568;6.998;2023-04-29T12:46:45;14.88;71.90
64997;SHT31;51545;51.568;6.998;2023-04-29T12:49:11;14.80;71.89
64997;SHT31;51545;51.568;6.998;2023-04-29T12:51:36;14.55;73.24
64997;SHT31;51545;51.568;6.998;2023-04-29T12:54:02;14.77;71.65
64997;SHT31;51545;51.568;6.998;2023-04-29T12:56:29;14.85;74.46
64997;SHT31;51545;51.568;6.998;2023-04-29T12:58:55;14.53;75.34
64997;SHT31;51545;51.568;6.998;2023-04-29T13:01:21;14.55;76.18
64997;SHT31;51545;51.568;6.998;2023-04-29T13:03:46;14.83;75.05
64997;SHT31;51545;51.568;6.998;2023-04-29T13:06:13;14.95;73.96
64997;SHT31;51545;51.568;6.998;2023-04-29T13:08:41;15.23;73.41
64997;SHT31;51545;51.568;6.998;2023-04-29T13:11:06;15.16;72.85
64997;SHT31;51545;51.568;6.998;2023-04-29T13:13:31;15.32;73.09
64997;SHT31;51545;51.568;6.998;2023-04-29T13:15:57;15.42;71.46
64997;SHT31;51545;51.568;6.998;2023-04-29T13:18:22;15.47;69.86
64997;SHT31;51545;51.568;6.998;2023-04-29T13:20:48;15.56;70.65
64997;SHT31;51545;51.568;6.998;2023-04-29T13:23:13;15.33;70.66
64997;SHT31;51545;51.568;6.998;2023-04-29T13:25:39;15.05;71.14
64997;SHT31;51545;51.568;6.998;2023-04-29T13:28:04;15.36;73.15
64997;SHT31;51545;51.568;6.998;2023-04-29T13:30:31;15.59;69.91
64997;SHT31;51545;51.568;6.998;2023-04-29T13:32:56;15.78;69.12
64997;SHT31;51545;51.568;6.998;2023-04-29T13:35:22;16.32;70.02
64997;SHT31;51545;51.568;6.998;2023-04-29T13:37:47;16.80;68.83
64997;SHT31;51545;51.568;6.998;2023-04-29T13:40:13;16.92;68.40
64997;SHT31;51545;51.568;6.998;2023-04-29T13:42:39;16.74;68.42
64997;SHT31;51545;51.568;6.998;2023-04-29T13:45:04;16.75;67.91
64997;SHT31;51545;51.568;6.998;2023-04-29T13:47:30;16.25;69.58
64997;SHT31;51545;51.568;6.998;2023-04-29T13:49:55;16.26;68.95
64997;SHT31;51545;51.568;6.998;2023-04-29T13:52:21;16.18;68.86
64997;SHT31;51545;51.568;6.998;2023-04-29T13:54:46;16.05;70.19
64997;SHT31;51545;51.568;6.998;2023-04-29T13:57:12;15.97;72.50
64997;SHT31;51545;51.568;6.998;2023-04-29T13:59:37;16.02;70.48
64997;SHT31;51545;51.568;6.998;2023-04-29T14:02:03;15.88;69.56
64997;SHT31;51545;51.568;6.998;2023-04-29T14:04:29;15.89;69.57
64997;SHT31;51545;51.568;6.998;2023-04-29T14:06:54;15.89;69.15
64997;SHT31;51545;51.568;6.998;2023-04-29T14:09:21;15.91;68.83
64997;SHT31;51545;51.568;6.998;2023-04-29T14:11:47;15.78;68.68
64997;SHT31;51545;51.568;6.998;2023-04-29T14:14:14;15.81;68.10
64997;SHT31;51545;51.568;6.998;2023-04-29T14:16:40;15.91;69.72
64997;SHT31;51545;51.568;6.998;2023-04-29T14:19:06;15.94;69.43
64997;SHT31;51545;51.568;6.998;2023-04-29T14:21:31;16.11;68.49
64997;SHT31;51545;51.568;6.998;2023-04-29T14:23:58;16.15;68.20
64997;SHT31;51545;51.568;6.998;2023-04-29T14:26:24;16.19;67.94
64997;SHT31;51545;51.568;6.998;2023-04-29T14:28:51;16.02;68.55
64997;SHT31;51545;51.568;6.998;2023-04-29T14:31:22;15.54;69.58
64997;SHT31;51545;51.568;6.998;2023-04-29T14:33:48;15.80;68.88
64997;SHT31;51545;51.568;6.998;2023-04-29T14:36:15;15.91;72.36
64997;SHT31;51545;51.568;6.998;2023-04-29T14:38:40;15.74;70.36
64997;SHT31;51545;51.568;6.998;2023-04-29T14:41:05;15.67;69.88
64997;SHT31;51545;51.568;6.998;2023-04-29T14:43:31;15.78;70.04
64997;SHT31;51545;51.568;6.998;2023-04-29T14:45:57;16.08;68.39
64997;SHT31;51545;51.568;6.998;2023-04-29T14:48:22;16.36;70.43
64997;SHT31;51545;51.568;6.998;2023-04-29T14:50:48;16.67;66.88
64997;SHT31;51545;51.568;6.998;2023-04-29T14:53:13;16.97;64.65
64997;SHT31;51545;51.568;6.998;2023-04-29T14:55:39;17.29;64.69
64997;SHT31;51545;51.568;6.998;2023-04-29T14:58:04;17.58;63.87
64997;SHT31;51545;51.568;6.998;2023-04-29T15:00:30;18.61;60.82
64997;SHT31;51545;51.568;6.998;2023-04-29T15:02:55;20.18;57.61
64997;SHT31;51545;51.568;6.998;2023-04-29T15:05:21;20.94;56.08
64997;SHT31;51545;51.568;6.998;2023-04-29T15:07:46;21.13;55.36
64997;SHT31;51545;51.568;6.998;2023-04-29T15:10:12;21.30;53.34
64997;SHT31;51545;51.568;6.998;2023-04-29T15:12:37;20.87;52.63
64997;SHT31;51545;51.568;6.998;2023-04-29T15:15:03;19.83;57.41
64997;SHT31;51545;51.568;6.998;2023-04-29T15:17:28;18.56;58.47
64997;SHT31;51545;51.568;6.998;2023-04-29T15:19:54;18.27;60.04
64997;SHT31;51545;51.568;6.998;2023-04-29T15:22:19;18.22;62.74
64997;SHT31;51545;51.568;6.998;2023-04-29T15:24:45;18.09;59.81
64997;SHT31;51545;51.568;6.998;2023-04-29T15:27:11;17.61;61.88
64997;SHT31;51545;51.568;6.998;2023-04-29T15:29:36;17.66;62.33
64997;SHT31;51545;51.568;6.998;2023-04-29T15:32:02;17.39;63.16
64997;SHT31;51545;51.568;6.998;2023-04-29T15:34:28;17.39;61.63
64997;SHT31;51545;51.568;6.998;2023-04-29T15:36:53;17.22;63.65
64997;SHT31;51545;51.568;6.998;2023-04-29T15:39:20;16.92;66.31
64997;SHT31;51545;51.568;6.998;2023-04-29T15:41:46;16.84;64.76
64997;SHT31;51545;51.568;6.998;2023-04-29T15:44:12;16.89;64.00
64997;SHT31;51545;51.568;6.998;2023-04-29T15:46:38;16.89;63.49
64997;SHT31;51545;51.568;6.998;2023-04-29T15:49:03;16.57;66.01
64997;SHT31;51545;51.568;6.998;2023-04-29T15:51:30;16.53;66.55
64997;SHT31;51545;51.568;6.998;2023-04-29T15:53:56;16.42;65.41
64997;SHT31;51545;51.568;6.998;2023-04-29T15:56:22;16.40;67.97
64997;SHT31;51545;51.568;6.998;2023-04-29T15:58:48;16.02;66.88
64997;SHT31;51545;51.568;6.998;2023-04-29T16:01:13;15.75;67.54